Time;durP1;ratioP1;P1;durP2;ratioP2;P2;SDS_P1;SDS_P2;PMS_P1;PMS_P2;Temp;Humidity;BMP_temperature;BMP_pressure;BME280_temperature;BME280_humidity;BME280_pressure;Samples;Min_cycle;Max_cycle;Signal;HPM_P1;HPM_P2
2021/05/27 00:00:00;;;;;;;5.38;2.25;;;;;;;22.31;43.77;100613.19;5070395;28;20160;-66
2021/05/27 00:02:27;;;;;;;6.03;1.90;;;;;;;22.15;44.11;100610.13;5069944;28;20119;-66
2021/05/27 00:04:55;;;;;;;5.93;2.22;;;;;;;22.02;44.44;100606.13;5069985;28;20064;-66
2021/05/27 00:07:22;;;;;;;8.95;1.83;;;;;;;22.01;44.11;100601.66;5070043;28;20501;-66
2021/05/27 00:09:49;;;;;;;9.23;2.25;;;;;;;22.05;44.36;100594.38;5070010;28;20056;-66
2021/05/27 00:12:16;;;;;;;5.60;1.98;;;;;;;22.04;44.19;100590.81;5070549;28;20143;-66
2021/05/27 00:14:43;;;;;;;5.25;2.00;;;;;;;21.87;44.39;100587.78;5070147;28;20127;-66
2021/05/27 00:17:10;;;;;;;6.93;2.05;;;;;;;21.72;44.84;100591.00;5069047;28;20131;-66
2021/05/27 00:19:38;;;;;;;5.70;2.10;;;;;;;21.71;45.11;100594.59;5069604;28;20032;-66
2021/05/27 00:22:06;;;;;;;6.72;2.45;;;;;;;21.72;45.08;100591.00;5070355;28;20051;-66
2021/05/27 00:24:33;;;;;;;7.45;2.30;;;;;;;21.66;45.03;100592.03;5069743;28;20111;-66
2021/05/27 00:27:00;;;;;;;9.75;2.42;;;;;;;21.75;44.92;100597.13;5069850;28;20056;-66
2021/05/27 00:29:27;;;;;;;6.85;2.00;;;;;;;21.63;45.11;100597.53;5069481;28;20474;-66
2021/05/27 00:31:54;;;;;;;6.63;2.60;;;;;;;21.66;45.00;100592.03;5068769;28;20775;-65
2021/05/27 00:34:21;;;;;;;6.72;2.22;;;;;;;21.70;45.07;100592.84;5063739;28;20037;-66
2021/05/27 00:36:48;;;;;;;7.95;2.50;;;;;;;21.75;44.86;100588.19;5069879;28;20033;-66
2021/05/27 00:39:16;;;;;;;6.80;2.65;;;;;;;21.72;44.82;100591.00;5069400;28;20046;-66
2021/05/27 00:41:43;;;;;;;7.82;2.05;;;;;;;21.56;45.10;100592.41;5069795;28;20500;-67
2021/05/27 00:44:24;;;;;;;7.53;2.17;;;;;;;21.49;45.36;100591.72;5061597;28;20040;-65
2021/05/27 00:46:52;;;;;;;7.43;2.13;;;;;;;21.44;45.32;100591.88;5069271;28;20438;-66
2021/05/27 00:49:20;;;;;;;6.18;2.42;;;;;;;21.44;45.54;100589.19;5069659;28;20037;-67
2021/05/27 00:51:48;;;;;;;9.25;2.30;;;;;;;21.45;45.82;100585.59;5068921;28;20198;-66
2021/05/27 00:54:38;;;;;;;8.50;2.60;;;;;;;21.42;45.63;100593.72;5069710;28;20566;-66
2021/05/27 00:57:09;;;;;;;7.68;2.45;;;;;;;21.31;46.24;100589.63;5069443;28;20048;-66
2021/05/27 00:59:36;;;;;;;7.35;2.35;;;;;;;21.36;45.90;100591.22;5068971;28;20036;-66
2021/05/27 01:02:03;;;;;;;6.28;2.13;;;;;;;21.27;46.23;100599.56;5069071;28;20123;-67
2021/05/27 01:04:30;;;;;;;7.40;2.55;;;;;;;21.09;46.57;100597.41;5069217;28;20060;-66
2021/05/27 01:06:57;;;;;;;5.57;2.17;;;;;;;21.07;46.76;100596.56;5068575;28;20128;-66
2021/05/27 01:09:24;;;;;;;8.95;2.30;;;;;;;21.09;46.58;100590.25;5068514;28;20040;-66
2021/05/27 01:11:52;;;;;;;6.45;2.20;;;;;;;21.19;46.48;100596.25;5069108;28;20064;-65
2021/05/27 01:17:01;;;;;;;5.95;2.58;;;;;;;20.92;47.09;100608.66;5069395;28;20094;-67
2021/05/27 01:19:27;;;;;;;6.38;2.75;;;;;;;20.88;47.40;100611.47;5068593;28;20504;-67
2021/05/27 01:21:56;;;;;;;11.98;2.85;;;;;;;21.00;47.22;100611.13;5068791;28;20067;-66
2021/05/27 01:24:23;;;;;;;7.25;2.38;;;;;;;20.99;47.45;100614.72;5068793;28;20032;-66
2021/05/27 01:26:50;;;;;;;8.00;2.90;;;;;;;20.97;47.45;100611.19;5068173;28;20118;-66
2021/05/27 01:29:17;;;;;;;11.75;2.60;;;;;;;20.77;47.80;100602.84;5069390;28;20036;-66
2021/05/27 01:31:44;;;;;;;4.70;2.40;;;;;;;20.76;47.87;100612.69;5068668;28;20047;-66
2021/05/27 01:34:11;;;;;;;5.97;3.03;;;;;;;20.72;48.21;100605.69;5068354;28;20116;-66
2021/05/27 01:36:44;;;;;;;6.70;2.03;;;;;;;20.79;48.15;100606.38;5069006;28;20086;-66
2021/05/27 01:39:13;;;;;;;6.75;2.33;;;;;;;20.82;47.74;100600.91;5068628;28;20043;-66
2021/05/27 01:41:40;;;;;;;6.90;2.58;;;;;;;20.75;47.67;100596.63;5068324;28;20127;-67
2021/05/27 01:44:07;;;;;;;6.18;2.28;;;;;;;20.55;48.39;100605.25;5069127;28;22139;-66
2021/05/27 01:46:34;;;;;;;7.15;2.35;;;;;;;20.52;48.54;100600.00;5069040;28;20058;-67
2021/05/27 01:49:02;;;;;;;7.38;2.78;;;;;;;20.59;48.48;100597.09;5068619;28;20123;-66
2021/05/27 01:51:29;;;;;;;6.32;2.35;;;;;;;20.69;48.29;100595.91;5067994;28;20033;-66
2021/05/27 01:53:56;;;;;;;4.38;2.40;;;;;;;20.80;48.19;100603.66;5068881;28;20032;-66
2021/05/27 01:56:24;;;;;;;8.85;2.17;;;;;;;20.78;48.40;100609.97;5068378;28;20060;-66
2021/05/27 01:58:51;;;;;;;9.55;2.72;;;;;;;20.61;48.90;100597.91;5068984;28;20029;-66
2021/05/27 02:01:18;;;;;;;5.87;2.43;;;;;;;20.56;48.99;100604.34;5068394;28;20101;-66
2021/05/27 02:03:45;;;;;;;5.18;2.30;;;;;;;20.58;48.64;100611.44;5068726;28;20037;-66
2021/05/27 02:06:12;;;;;;;9.50;2.70;;;;;;;20.57;48.46;100603.41;5068501;28;20386;-66
2021/05/27 02:09:06;;;;;;;6.10;2.35;;;;;;;20.47;48.54;100604.59;5068993;28;20496;-66
2021/05/27 02:11:28;;;;;;;8.25;2.92;;;;;;;20.50;48.78;100601.81;5068694;28;20086;-66
2021/05/27 02:13:55;;;;;;;4.97;2.50;;;;;;;20.48;48.87;100604.53;5068597;28;20032;-66
2021/05/27 02:16:22;;;;;;;6.88;2.40;;;;;;;20.40;49.14;100603.00;5067893;28;20043;-66
2021/05/27 02:18:49;;;;;;;11.15;3.08;;;;;;;20.46;49.33;100608.22;5068914;28;20118;-66
2021/05/27 02:21:16;;;;;;;8.27;2.40;;;;;;;20.39;49.51;100607.50;5069598;28;20128;-66
2021/05/27 02:23:44;;;;;;;5.90;3.25;;;;;;;20.35;49.49;100613.84;5072116;28;20158;-65
2021/05/27 02:26:11;;;;;;;6.75;2.55;;;;;;;20.34;49.83;100613.91;5072018;28;20115;-66
2021/05/27 02:28:39;;;;;;;5.10;3.00;;;;;;;20.35;49.67;100619.19;5072479;28;20033;-66
2021/05/27 02:31:06;;;;;;;11.55;2.80;;;;;;;20.35;49.58;100618.34;5071557;28;20037;-66
2021/05/27 02:33:33;;;;;;;8.57;3.38;;;;;;;20.34;49.80;100627.31;5072414;28;20093;-66
2021/05/27 02:36:00;;;;;;;8.93;3.10;;;;;;;20.28;49.76;100622.97;5071894;28;20056;-66
2021/05/27 02:38:26;;;;;;;9.65;2.67;;;;;;;20.37;49.71;100624.53;5072018;28;20063;-66
2021/05/27 02:40:53;;;;;;;6.68;3.15;;;;;;;20.42;49.29;100634.22;5072205;28;20060;-67
2021/05/27 02:43:21;;;;;;;7.75;2.75;;;;;;;20.43;49.36;100635.97;5072166;28;20123;-66
2021/05/27 02:45:49;;;;;;;9.68;3.13;;;;;;;20.40;49.47;100637.88;5071609;28;20115;-66
2021/05/27 02:48:16;;;;;;;8.93;3.22;;;;;;;20.25;49.67;100648.03;5071844;28;20044;-67
2021/05/27 02:50:43;;;;;;;5.75;3.17;;;;;;;20.26;50.05;100644.44;5071282;28;20032;-66
2021/05/27 02:53:11;;;;;;;6.55;2.92;;;;;;;20.32;49.77;100648.75;5072278;28;20522;-67
2021/05/27 02:55:38;;;;;;;7.40;3.35;;;;;;;20.35;49.54;100651.38;5067775;28;20064;-67
2021/05/27 02:58:05;;;;;;;7.70;2.80;;;;;;;20.36;49.56;100647.78;5070992;28;20128;-67
2021/05/27 03:00:32;;;;;;;8.02;2.88;;;;;;;20.38;49.66;100645.94;5071142;28;20045;-66
2021/05/27 03:03:00;;;;;;;7.97;2.40;;;;;;;20.31;49.79;100644.31;5071380;28;20049;-67
2021/05/27 03:05:28;;;;;;;7.65;2.30;;;;;;;20.28;49.75;100647.94;5070985;28;20399;-66
2021/05/27 03:07:55;;;;;;;8.35;2.90;;;;;;;20.23;49.69;100647.19;5051768;28;20039;-66
2021/05/27 03:10:22;;;;;;;5.65;2.58;;;;;;;19.99;50.43;100655.88;5066998;28;20115;-66
2021/05/27 03:12:49;;;;;;;8.55;2.83;;;;;;;19.94;50.64;100654.22;5071412;28;20044;-66
2021/05/27 03:15:17;;;;;;;10.68;2.83;;;;;;;19.97;50.72;100659.47;5071095;28;20132;-66
2021/05/27 03:17:44;;;;;;;10.95;2.97;;;;;;;20.04;50.58;100653.06;5071256;28;20559;-66
2021/05/27 03:20:14;;;;;;;8.70;3.17;;;;;;;20.13;50.68;100650.16;5071424;28;20057;-65
2021/05/27 03:22:41;;;;;;;9.35;2.88;;;;;;;20.24;50.69;100645.41;5071250;28;20071;-66
2021/05/27 03:25:09;;;;;;;7.22;3.10;;;;;;;20.30;50.56;100647.91;5067464;28;20039;-66
2021/05/27 03:27:38;;;;;;;9.38;3.10;;;;;;;20.32;50.79;100642.50;5071212;28;20040;-66
2021/05/27 03:30:06;;;;;;;6.03;2.45;;;;;;;20.31;50.67;100652.34;5070227;28;20039;-66
2021/05/27 03:32:33;;;;;;;6.05;2.40;;;;;;;20.29;50.38;100635.41;5071086;28;20039;-66
2021/05/27 03:35:00;;;;;;;6.22;2.85;;;;;;;20.29;50.72;100644.34;5070689;28;20040;-66
2021/05/27 03:37:30;;;;;;;7.00;3.05;;;;;;;20.47;50.31;100645.72;5071307;28;20052;-67
2021/05/27 03:40:13;;;;;;;8.35;2.80;;;;;;;20.56;50.45;100645.44;5070540;28;20136;-65
2021/05/27 03:42:41;;;;;;;10.43;2.97;;;;;;;20.70;50.34;100645.06;5070604;28;20048;-66
2021/05/27 03:45:11;;;;;;;7.32;3.33;;;;;;;20.81;50.22;100642.06;5065892;28;20128;-66
2021/05/27 03:47:39;;;;;;;4.97;2.92;;;;;;;20.87;50.13;100640.09;5070750;28;20051;-66
2021/05/27 03:50:08;;;;;;;8.45;2.50;;;;;;;20.96;50.23;100642.53;5070228;28;20067;-66
2021/05/27 03:52:36;;;;;;;8.38;3.00;;;;;;;21.01;49.97;100643.28;5070703;28;20058;-66
2021/05/27 03:55:04;;;;;;;7.53;2.45;;;;;;;21.06;49.99;100649.41;5065757;28;20519;-66
2021/05/27 03:57:32;;;;;;;11.07;3.10;;;;;;;21.18;50.07;100640.13;5070893;28;20066;-66
2021/05/27 04:02:45;;;;;;;;;;;;;;;21.57;49.61;100655.97;5059811;28;20045;-66
2021/05/27 04:07:59;;;;;;;9.10;2.70;;;;;;;21.77;49.51;100650.84;5069836;28;20051;-66
2021/05/27 04:10:27;;;;;;;5.95;2.70;;;;;;;21.95;49.26;100650.22;5070441;28;20128;-66
2021/05/27 04:12:54;;;;;;;6.68;2.42;;;;;;;22.20;49.01;100645.81;5069978;28;20115;-66
2021/05/27 04:15:24;;;;;;;5.50;2.22;;;;;;;22.48;48.55;100650.25;5069656;28;20040;-66
2021/05/27 04:17:59;;;;;;;4.45;2.42;;;;;;;22.71;48.32;100644.91;5070417;28;20037;-66
2021/05/27 04:20:29;;;;;;;8.35;2.70;;;;;;;22.91;48.08;100644.22;5070289;28;20656;-66
2021/05/27 04:22:56;;;;;;;8.00;2.90;;;;;;;23.14;47.88;100640.69;5069174;28;20043;-67
2021/05/27 04:25:25;;;;;;;7.93;2.65;;;;;;;23.24;47.57;100637.56;5069206;28;20048;-66
2021/05/27 04:27:53;;;;;;;7.00;2.97;;;;;;;23.43;47.11;100651.22;5069711;28;20040;-66
2021/05/27 04:30:21;;;;;;;8.38;2.58;;;;;;;23.63;47.04;100642.38;5055955;28;20066;-66
2021/05/27 04:32:57;;;;;;;8.60;2.20;;;;;;;23.85;46.62;100648.63;5069838;28;20131;-66
2021/05/27 04:35:26;;;;;;;8.45;2.42;;;;;;;24.06;46.25;100653.16;5070206;28;20399;-66
2021/05/27 04:37:55;;;;;;;9.80;2.42;;;;;;;24.31;46.19;100652.16;5069035;28;20037;-66
2021/05/27 04:40:23;;;;;;;11.77;2.40;;;;;;;24.54;45.61;100663.72;5069871;28;20037;-66
2021/05/27 04:42:51;;;;;;;9.38;2.55;;;;;;;24.72;45.00;100647.66;5067281;28;20120;-67
2021/05/27 04:45:18;;;;;;;5.57;2.25;;;;;;;24.96;44.97;100654.66;5059620;28;20405;-66
2021/05/27 04:47:46;;;;;;;6.53;2.85;;;;;;;25.23;44.54;100653.41;5069040;28;20044;-66
2021/05/27 04:50:14;;;;;;;8.23;2.97;;;;;;;25.52;44.04;100659.28;5068550;28;20119;-66
2021/05/27 04:52:41;;;;;;;6.53;2.97;;;;;;;25.81;43.58;100650.66;5067150;28;20074;-67
2021/05/27 04:55:11;;;;;;;9.20;2.80;;;;;;;26.12;43.21;100660.84;5067192;28;20040;-67
2021/05/27 04:57:40;;;;;;;9.18;3.97;;;;;;;26.35;42.77;100656.97;5062351;28;20101;-66
2021/05/27 05:00:10;;;;;;;9.05;3.10;;;;;;;26.68;41.98;100655.22;5060526;28;20102;-67
2021/05/27 05:02:38;;;;;;;11.63;2.90;;;;;;;27.02;41.69;100661.59;5067282;28;20053;-67
2021/05/27 05:05:07;;;;;;;7.68;2.30;;;;;;;27.33;41.12;100654.41;5057950;28;20064;-66
2021/05/27 05:07:35;;;;;;;8.77;2.63;;;;;;;27.61;40.56;100656.50;5051052;28;20544;-67
2021/05/27 05:10:03;;;;;;;10.98;2.65;;;;;;;27.82;39.84;100659.81;5049727;28;20048;-67
2021/05/27 05:12:30;;;;;;;9.63;2.20;;;;;;;28.11;39.77;100660.81;5051111;28;20033;-66
2021/05/27 05:15:17;;;;;;;12.32;2.30;;;;;;;28.47;39.34;100655.97;5065289;28;20041;-67
2021/05/27 05:17:48;;;;;;;8.85;2.63;;;;;;;28.79;38.63;100659.47;5050772;28;20036;-67
2021/05/27 05:20:16;;;;;;;8.98;2.20;;;;;;;29.06;38.21;100656.91;5059405;28;20037;-67
2021/05/27 05:22:43;;;;;;;8.90;2.40;;;;;;;29.25;37.88;100654.75;5064552;28;20124;-67
2021/05/27 05:25:11;;;;;;;7.35;2.30;;;;;;;29.46;37.48;100657.09;5064740;28;20037;-67
2021/05/27 05:27:38;;;;;;;9.35;2.45;;;;;;;29.52;37.79;100670.31;5068782;28;20063;-66
2021/05/27 05:30:07;;;;;;;5.88;2.10;;;;;;;29.70;38.02;100670.00;5079318;28;20470;-67
2021/05/27 05:32:35;;;;;;;9.27;2.78;;;;;;;29.99;37.85;100664.50;5068450;28;20548;-67
2021/05/27 05:35:04;;;;;;;7.25;2.80;;;;;;;30.19;37.87;100666.78;5069123;28;20121;-67
2021/05/27 05:37:32;;;;;;;6.88;2.35;;;;;;;30.40;37.72;100667.16;5057300;28;20044;-67
2021/05/27 05:39:58;;;;;;;6.65;2.15;;;;;;;30.68;37.45;100669.75;5058757;28;20504;-67
2021/05/27 05:42:25;;;;;;;6.80;2.15;;;;;;;30.99;37.48;100673.94;5055894;28;20120;-67
2021/05/27 05:44:52;;;;;;;6.75;1.92;;;;;;;31.10;37.17;100670.50;5051503;28;20616;-67
2021/05/27 05:47:19;;;;;;;9.18;2.25;;;;;;;31.12;37.02;100669.38;5058680;28;20136;-67
2021/05/27 05:49:48;;;;;;;7.40;2.55;;;;;;;31.30;37.02;100678.13;5049192;28;20490;-67
2021/05/27 05:52:15;;;;;;;7.28;2.20;;;;;;;31.23;37.46;100672.22;5049040;28;20037;-67
2021/05/27 05:54:42;;;;;;;10.73;2.50;;;;;;;31.34;37.28;100674.19;5049428;28;20122;-68
2021/05/27 05:57:09;;;;;;;11.02;2.50;;;;;;;31.41;37.55;100677.34;5053235;28;20127;-67
2021/05/27 05:59:36;;;;;;;10.07;2.92;;;;;;;31.28;37.64;100666.44;5053261;28;20068;-67
2021/05/27 06:02:04;;;;;;;8.30;2.30;;;;;;;31.38;37.86;100681.16;5065324;28;20041;-67
2021/05/27 06:04:31;;;;;;;5.07;1.95;;;;;;;31.43;37.39;100678.97;5070974;28;20508;-67
2021/05/27 06:06:59;;;;;;;8.60;2.00;;;;;;;31.25;37.75;100669.38;5072829;28;20663;-67
2021/05/27 06:09:26;;;;;;;8.32;2.10;;;;;;;31.18;37.78;100677.13;5071630;28;20162;-67
2021/05/27 06:11:53;;;;;;;8.32;2.40;;;;;;;31.27;38.32;100673.75;5071761;28;20033;-67
2021/05/27 06:14:20;;;;;;;7.80;2.50;;;;;;;31.55;37.61;100666.28;5072366;28;20039;-67
2021/05/27 06:16:47;;;;;;;8.45;2.20;;;;;;;31.69;37.35;100673.50;5071175;28;20032;-67
2021/05/27 06:19:15;;;;;;;8.45;2.28;;;;;;;31.65;37.44;100668.25;5071507;28;20032;-67
2021/05/27 06:21:42;;;;;;;8.68;2.33;;;;;;;31.75;37.33;100670.31;5072379;28;20063;-67
2021/05/27 06:24:10;;;;;;;7.85;2.03;;;;;;;31.64;36.94;100665.63;5071893;28;20068;-68
2021/05/27 06:26:38;;;;;;;7.78;2.45;;;;;;;31.85;36.58;100668.63;5071862;28;20049;-68
2021/05/27 06:29:06;;;;;;;6.07;1.92;;;;;;;31.97;36.56;100667.72;5072429;28;20135;-68
2021/05/27 06:31:33;;;;;;;7.30;2.35;;;;;;;32.17;36.33;100668.97;5072684;28;20045;-68
2021/05/27 06:34:00;;;;;;;6.22;2.50;;;;;;;32.05;36.74;100676.22;5071671;28;20048;-67
2021/05/27 06:36:27;;;;;;;6.32;2.65;;;;;;;32.00;37.21;100678.44;5071008;28;20074;-67
2021/05/27 06:38:54;;;;;;;9.07;2.97;;;;;;;31.93;37.82;100679.88;5071290;28;20110;-67
2021/05/27 06:41:22;;;;;;;7.07;2.13;;;;;;;31.87;38.22;100678.47;5072048;28;20048;-68
2021/05/27 06:43:51;;;;;;;8.13;2.05;;;;;;;31.73;38.42;100678.63;5070273;28;20064;-67
2021/05/27 06:46:19;;;;;;;7.30;2.00;;;;;;;31.45;39.05;100674.25;5071401;28;20048;-67
2021/05/27 06:48:47;;;;;;;7.15;2.53;;;;;;;31.42;39.27;100682.69;5066393;28;20040;-66
2021/05/27 06:51:14;;;;;;;7.53;2.38;;;;;;;31.65;38.69;100681.91;5058696;28;20036;-66
2021/05/27 06:53:41;;;;;;;7.30;2.10;;;;;;;31.88;38.40;100682.94;5067279;28;20119;-66
2021/05/27 06:56:08;;;;;;;7.10;1.88;;;;;;;32.10;37.89;100684.94;5059765;28;20078;-66
2021/05/27 06:58:36;;;;;;;8.93;2.22;;;;;;;32.22;37.08;100681.31;5065626;28;20036;-67
2021/05/27 07:01:03;;;;;;;6.35;2.63;;;;;;;32.16;36.92;100684.53;5056803;28;20052;-67
2021/05/27 07:03:30;;;;;;;5.80;1.90;;;;;;;32.17;37.18;100680.78;5052979;28;20453;-67
2021/05/27 07:05:58;;;;;;;8.25;2.33;;;;;;;32.26;36.50;100681.94;5073959;28;20412;-67
2021/05/27 07:08:26;;;;;;;6.30;2.25;;;;;;;32.36;36.55;100681.13;5051029;28;20043;-67
2021/05/27 07:10:52;;;;;;;5.75;1.98;;;;;;;32.21;37.20;100687.78;5051201;28;20560;-67
2021/05/27 07:13:19;;;;;;;5.95;2.13;;;;;;;32.42;36.79;100679.81;5059249;28;20120;-67
2021/05/27 07:15:47;;;;;;;7.88;1.80;;;;;;;32.61;35.89;100682.00;5071215;28;20121;-67
2021/05/27 07:18:14;;;;;;;6.90;2.45;;;;;;;32.65;36.65;100684.34;5071041;28;20400;-67
2021/05/27 07:20:42;;;;;;;8.32;2.50;;;;;;;32.77;36.56;100680.69;5071264;28;20108;-67
2021/05/27 07:23:10;;;;;;;7.15;2.22;;;;;;;32.70;36.63;100684.03;5066916;28;20102;-66
2021/05/27 07:25:37;;;;;;;6.50;2.15;;;;;;;32.64;37.25;100676.25;5071235;28;20064;-67
2021/05/27 07:28:04;;;;;;;6.28;2.03;;;;;;;32.71;37.20;100681.19;5070875;28;20484;-67
2021/05/27 07:30:32;;;;;;;5.75;2.10;;;;;;;32.72;37.42;100687.53;5070923;28;20037;-67
2021/05/27 07:33:00;;;;;;;6.43;2.10;;;;;;;32.52;37.28;100685.41;5070743;28;20044;-67
2021/05/27 07:35:28;;;;;;;9.13;2.75;;;;;;;32.40;37.53;100685.38;5070079;28;20071;-67
2021/05/27 07:37:56;;;;;;;6.30;2.25;;;;;;;32.22;38.07;100695.00;5070304;28;20056;-66
2021/05/27 07:40:23;;;;;;;6.97;2.33;;;;;;;32.14;38.28;100702.00;5062695;28;20037;-66
2021/05/27 07:42:50;;;;;;;6.72;2.10;;;;;;;32.05;38.41;100703.53;5068469;28;20563;-66
2021/05/27 07:45:18;;;;;;;8.45;1.90;;;;;;;32.22;38.27;100700.47;5068331;28;20498;-67
2021/05/27 07:47:45;;;;;;;8.43;2.22;;;;;;;32.66;37.91;100704.38;5067683;28;20563;-67
2021/05/27 07:50:20;;;;;;;7.93;1.80;;;;;;;33.06;37.23;100705.78;5070111;28;20123;-67
2021/05/27 07:52:47;;;;;;;5.07;2.08;;;;;;;32.97;37.51;100706.47;5069249;28;20028;-66
2021/05/27 07:55:14;;;;;;;7.60;2.42;;;;;;;32.94;37.33;100704.00;5070891;28;20115;-67
2021/05/27 07:57:41;;;;;;;7.50;2.10;;;;;;;32.82;37.90;100704.97;5071353;28;20044;-67
2021/05/27 08:00:10;;;;;;;4.93;1.88;;;;;;;32.89;37.55;100706.19;5070637;28;20044;-67
2021/05/27 08:02:38;;;;;;;5.88;2.10;;;;;;;32.68;38.20;100696.97;5070664;28;20452;-67
2021/05/27 08:05:06;;;;;;;8.30;2.10;;;;;;;32.81;38.04;100709.56;5070667;28;20622;-67
2021/05/27 08:07:34;;;;;;;8.23;2.40;;;;;;;32.99;37.91;100703.63;5070432;28;20045;-67
2021/05/27 08:10:02;;;;;;;6.55;2.67;;;;;;;32.91;37.64;100714.31;5070626;28;20119;-67
2021/05/27 08:12:29;;;;;;;6.93;1.67;;;;;;;32.64;38.34;100714.53;5070765;28;20045;-67
2021/05/27 08:14:56;;;;;;;9.40;2.47;;;;;;;32.44;38.95;100711.47;5066868;28;20141;-67
2021/05/27 08:17:22;;;;;;;6.35;2.42;;;;;;;32.64;39.21;100715.41;5070238;28;20451;-67
2021/05/27 08:19:50;;;;;;;8.70;2.17;;;;;;;32.53;39.06;100725.44;5068923;28;20644;-67
2021/05/27 08:22:17;;;;;;;7.72;2.25;;;;;;;32.66;39.15;100718.03;5068638;28;20045;-67
2021/05/27 08:24:45;;;;;;;7.38;2.30;;;;;;;32.74;39.06;100713.78;5069894;28;20120;-67
2021/05/27 08:27:13;;;;;;;7.45;2.70;;;;;;;33.04;38.46;100726.91;5070430;28;20032;-67
2021/05/27 08:29:40;;;;;;;8.30;2.60;;;;;;;33.18;38.20;100726.69;5069479;28;20105;-67
2021/05/27 08:32:07;;;;;;;8.60;2.67;;;;;;;33.32;38.23;100727.50;5070283;28;20132;-67
2021/05/27 08:34:34;;;;;;;10.25;2.65;;;;;;;33.17;38.35;100735.88;5070112;28;20124;-66
2021/05/27 08:37:01;;;;;;;12.73;3.08;;;;;;;32.86;38.76;100722.88;5069995;28;20123;-67
2021/05/27 08:39:28;;;;;;;10.70;2.88;;;;;;;32.76;38.88;100724.56;5070086;28;20062;-67
2021/05/27 08:41:57;;;;;;;9.07;2.70;;;;;;;33.10;38.31;100726.41;5069404;28;20066;-67
2021/05/27 08:44:24;;;;;;;8.68;2.70;;;;;;;33.20;38.08;100729.34;5069882;28;20040;-67
2021/05/27 08:46:51;;;;;;;9.80;2.78;;;;;;;32.93;38.28;100723.28;5069197;28;20508;-67
2021/05/27 08:49:18;;;;;;;12.25;2.85;;;;;;;32.86;38.04;100725.63;5067857;28;20704;-67
2021/05/27 08:51:46;;;;;;;15.25;2.88;;;;;;;32.85;38.57;100729.34;5069787;28;20060;-67
2021/05/27 08:54:14;;;;;;;10.85;3.10;;;;;;;32.61;38.97;100717.53;5074976;28;20064;-67
2021/05/27 08:56:41;;;;;;;11.88;3.08;;;;;;;32.33;39.56;100724.22;5068484;28;20091;-67
2021/05/27 08:59:09;;;;;;;15.23;2.75;;;;;;;32.56;39.55;100728.81;5069813;28;20127;-67
2021/05/27 09:02:03;;;;;;;10.85;2.90;;;;;;;32.87;39.00;100732.84;5069573;28;20119;-67
2021/05/27 09:04:30;;;;;;;9.65;2.88;;;;;;;32.99;39.15;100733.72;5069016;28;20039;-67
2021/05/27 09:06:57;;;;;;;12.75;3.28;;;;;;;32.85;39.08;100732.06;5069471;28;20457;-66
2021/05/27 09:09:24;;;;;;;12.57;3.55;;;;;;;32.60;39.32;100741.28;5069790;28;20037;-67
2021/05/27 09:11:51;;;;;;;12.40;2.97;;;;;;;32.63;39.78;100740.16;5068209;28;20408;-67
2021/05/27 09:14:19;;;;;;;12.77;2.72;;;;;;;32.60;39.79;100745.88;5056446;28;20120;-67
2021/05/27 09:17:00;;;;;;;11.90;2.97;;;;;;;32.73;39.32;100735.75;5049517;28;20047;-67
2021/05/27 09:19:27;;;;;;;12.85;3.83;;;;;;;32.53;39.91;100734.53;5049756;28;20037;-66
2021/05/27 09:21:54;;;;;;;10.90;4.05;;;;;;;32.61;40.32;100734.81;5065461;28;20386;-67
2021/05/27 09:24:45;;;;;;;14.45;4.05;;;;;;;32.65;40.49;100730.84;5066821;28;20135;-67
2021/05/27 09:27:12;;;;;;;12.57;3.45;;;;;;;32.59;40.84;100734.06;5069265;28;20047;-67
2021/05/27 09:29:45;;;;;;;15.50;3.60;;;;;;;32.66;40.66;100726.25;5069120;28;20123;-67
2021/05/27 09:32:13;;;;;;;19.10;4.10;;;;;;;32.37;41.28;100725.72;5068939;28;20028;-67
2021/05/27 09:34:45;;;;;;;14.88;3.70;;;;;;;32.58;40.66;100729.56;5068823;28;20044;-67
2021/05/27 09:37:20;;;;;;;15.18;3.75;;;;;;;32.82;40.33;100726.84;5069259;28;20041;-67
2021/05/27 09:39:49;;;;;;;20.10;4.55;;;;;;;32.49;40.74;100732.16;5067814;28;20040;-66
2021/05/27 09:42:17;;;;;;;13.13;3.97;;;;;;;32.06;41.49;100725.28;5069199;28;20552;-68
2021/05/27 09:44:46;;;;;;;13.95;3.67;;;;;;;32.20;41.56;100737.94;5069266;28;20044;-68
2021/05/27 09:47:13;;;;;;;12.00;2.83;;;;;;;32.13;41.26;100719.34;5069498;28;20419;-67
2021/05/27 09:49:57;;;;;;;14.52;3.72;;;;;;;32.53;40.67;100729.06;5067277;28;20120;-68
2021/05/27 09:52:26;;;;;;;11.57;3.15;;;;;;;32.63;40.66;100721.00;5068869;28;20074;-68
2021/05/27 09:54:56;;;;;;;14.00;3.70;;;;;;;32.90;40.53;100724.38;5069448;28;20041;-67
2021/05/27 09:57:24;;;;;;;18.75;3.78;;;;;;;33.14;39.58;100729.78;5069236;28;20029;-67
2021/05/27 09:59:53;;;;;;;16.70;3.40;;;;;;;32.77;40.14;100718.09;5068438;28;20525;-67
2021/05/27 10:02:21;;;;;;;11.25;2.95;;;;;;;32.42;41.02;100721.69;5069047;28;20048;-67
2021/05/27 10:05:09;;;;;;;15.43;3.45;;;;;;;32.12;41.82;100723.06;5069101;28;20043;-67
2021/05/27 10:07:39;;;;;;;12.75;3.90;;;;;;;31.84;41.98;100724.25;5068341;28;20040;-68
2021/05/27 10:10:08;;;;;;;13.85;3.40;;;;;;;31.67;42.12;100731.81;5067430;28;20072;-67
2021/05/27 10:12:39;;;;;;;15.35;3.50;;;;;;;31.28;42.62;100718.28;5068587;28;20404;-67
2021/05/27 10:15:10;;;;;;;15.20;3.53;;;;;;;31.32;42.72;100717.06;5068042;28;20120;-68
2021/05/27 10:17:38;;;;;;;19.73;3.67;;;;;;;31.38;42.73;100723.94;5068814;28;20067;-67
2021/05/27 10:20:08;;;;;;;19.55;3.58;;;;;;;31.45;42.61;100723.41;5067467;28;20043;-68
2021/05/27 10:22:36;;;;;;;11.80;3.10;;;;;;;31.38;42.51;100718.47;5068466;28;20036;-67
2021/05/27 10:25:06;;;;;;;14.50;3.70;;;;;;;31.23;42.29;100718.63;5068209;28;20094;-67
2021/05/27 10:27:33;;;;;;;16.77;3.55;;;;;;;31.07;42.42;100709.75;5068311;28;20424;-67
2021/05/27 10:30:00;;;;;;;12.65;3.90;;;;;;;30.86;42.55;100706.66;5068073;28;20381;-67
2021/05/27 10:32:29;;;;;;;11.25;2.92;;;;;;;30.84;42.68;100713.22;5068236;28;20045;-66
2021/05/27 10:34:56;;;;;;;11.45;3.58;;;;;;;30.72;42.66;100709.44;5068431;28;20032;-68
2021/05/27 10:37:48;;;;;;;14.55;3.80;;;;;;;30.62;43.16;100702.03;5068159;28;20029;-67
2021/05/27 10:40:38;;;;;;;11.95;2.97;;;;;;;30.53;43.16;100703.53;5075446;28;20498;-67
2021/05/27 10:43:09;;;;;;;14.57;3.35;;;;;;;30.56;42.86;100695.16;5070459;28;20040;-66
2021/05/27 10:46:04;;;;;;;11.18;3.55;;;;;;;30.75;42.72;100695.63;5071490;28;20040;-67
2021/05/27 10:48:40;;;;;;;12.73;3.40;;;;;;;30.53;43.01;100697.19;5071384;28;20504;-66
2021/05/27 10:51:11;;;;;;;14.00;3.20;;;;;;;30.63;42.69;100703.78;5071440;28;20090;-67
2021/05/27 10:53:50;;;;;;;11.02;2.85;;;;;;;30.44;42.32;100695.97;5072076;28;20135;-66
2021/05/27 10:56:19;;;;;;;11.88;3.90;;;;;;;30.87;41.13;100693.88;5071372;28;20093;-67
2021/05/27 10:59:12;;;;;;;11.10;3.40;;;;;;;31.23;40.10;100699.53;5071195;28;20068;-66
2021/05/27 11:01:55;;;;;;;15.07;3.72;;;;;;;31.39;39.77;100688.34;5070662;28;20056;-67
2021/05/27 11:04:26;;;;;;;19.55;4.30;;;;;;;31.44;39.26;100691.63;5069101;28;20032;-67
2021/05/27 11:07:15;;;;;;;13.32;3.67;;;;;;;31.54;39.42;100694.56;5071568;28;20518;-66
2021/05/27 11:09:45;;;;;;;13.88;3.05;;;;;;;31.98;38.87;100694.03;5071424;28;20040;-67
2021/05/27 11:12:29;;;;;;;16.88;3.47;;;;;;;32.41;37.95;100689.88;5071104;28;20036;-66
2021/05/27 11:15:16;;;;;;;15.15;3.78;;;;;;;32.74;37.01;100688.28;5067788;28;20401;-66
2021/05/27 11:18:00;;;;;;;12.15;2.95;;;;;;;32.61;36.55;100691.06;5062574;28;20044;-67
2021/05/27 11:20:30;;;;;;;7.20;2.60;;;;;;;32.56;36.71;100682.31;5071048;28;20028;-67
2021/05/27 11:23:10;;;;;;;11.13;2.95;;;;;;;32.70;35.92;100684.03;5071332;28;20059;-66
2021/05/27 11:25:40;;;;;;;13.65;2.72;;;;;;;32.49;36.66;100682.94;5071669;28;20040;-67
2021/05/27 11:28:34;;;;;;;11.20;3.13;;;;;;;32.44;36.75;100681.41;5069721;28;20455;-66
2021/05/27 11:31:01;;;;;;;12.40;3.28;;;;;;;32.73;36.65;100684.66;5069135;28;20044;-66
2021/05/27 11:33:33;;;;;;;14.27;3.67;;;;;;;32.90;37.07;100685.19;5071192;28;20082;-66
2021/05/27 11:36:04;;;;;;;12.45;2.97;;;;;;;33.25;36.41;100680.56;5070518;28;20047;-67
2021/05/27 11:38:33;;;;;;;10.68;2.92;;;;;;;33.16;36.61;100678.53;5070818;28;20119;-67